Time;durP1;ratioP1;P1;durP2;ratioP2;P2;SDS_P1;SDS_P2;PMS_P1;PMS_P2;Temp;Humidity;BMP_temperature;BMP_pressure;BME280_temperature;BME280_humidity;BME280_pressure;Samples;Min_cycle;Max_cycle;Signal;HPM_P1;HPM_P2
2021/12/10 00:01:03;;;;;;;22.58;9.07;;;4.10;99.90;;;;;;5054809;28;20445;-74
2021/12/10 00:03:35;;;;;;;35.95;11.23;;;4.10;99.90;;;;;;5072664;28;20032;-74
2021/12/10 00:06:06;;;;;;;29.90;10.13;;;4.10;99.90;;;;;;5073037;28;20111;-74
2021/12/10 00:08:35;;;;;;;35.20;10.07;;;4.10;99.90;;;;;;5072198;28;20038;-74
2021/12/10 00:11:05;;;;;;;46.25;11.10;;;4.10;99.90;;;;;;5072828;28;20082;-72
2021/12/10 00:13:30;;;;;;;25.77;9.05;;;4.10;99.90;;;;;;5054763;28;20381;-73
2021/12/10 00:15:56;;;;;;;27.98;9.57;;;4.10;99.90;;;;;;5072752;28;20031;-72
2021/12/10 00:18:31;;;;;;;28.13;9.98;;;4.10;99.90;;;;;;5072631;28;20040;-72
2021/12/10 00:20:59;;;;;;;31.85;9.98;;;4.10;99.90;;;;;;5072607;28;20028;-73
2021/12/10 00:23:29;;;;;;;33.55;8.90;;;4.10;99.90;;;;;;5072395;28;20028;-73
2021/12/10 00:25:55;;;;;;;24.85;8.38;;;4.20;99.90;;;;;;5072324;28;20032;-73
2021/12/10 00:28:28;;;;;;;23.60;8.57;;;4.10;99.90;;;;;;5072671;28;20029;-73
2021/12/10 00:33:51;;;;;;;25.67;7.63;;;4.10;99.90;;;;;;5072648;28;20056;-72
2021/12/10 00:36:17;;;;;;;29.17;9.45;;;4.10;99.90;;;;;;5072532;28;20025;-72
2021/12/10 00:38:44;;;;;;;25.05;7.82;;;4.10;99.90;;;;;;5072351;28;20089;-72
2021/12/10 00:41:10;;;;;;;38.20;8.60;;;4.10;99.90;;;;;;5072552;28;20074;-73
2021/12/10 00:43:36;;;;;;;29.40;8.05;;;4.10;99.90;;;;;;5054551;28;20040;-72
2021/12/10 00:46:03;;;;;;;27.45;6.90;;;4.10;99.90;;;;;;5072472;28;20032;-73
2021/12/10 00:48:28;;;;;;;20.55;6.65;;;4.10;99.90;;;;;;5072554;28;20450;-73
2021/12/10 00:50:56;;;;;;;25.05;6.93;;;4.20;99.90;;;;;;5072390;28;20119;-72
2021/12/10 00:53:22;;;;;;;22.52;8.05;;;4.20;99.90;;;;;;5054408;28;20119;-73
2021/12/10 00:55:49;;;;;;;26.45;7.53;;;4.20;99.90;;;;;;5072175;28;20103;-73
2021/12/10 00:58:16;;;;;;;28.77;7.25;;;4.20;99.90;;;;;;5072350;28;20469;-73
2021/12/10 01:00:46;;;;;;;36.00;7.55;;;4.30;99.90;;;;;;5054200;28;20021;-72
2021/12/10 01:03:17;;;;;;;27.17;9.52;;;4.30;99.90;;;;;;5054226;28;20044;-72
2021/12/10 01:05:46;;;;;;;22.97;6.27;;;4.40;99.90;;;;;;5074177;28;20503;-73
2021/12/10 01:08:12;;;;;;;27.38;7.10;;;4.40;99.90;;;;;;5041315;28;20039;-74
2021/12/10 01:10:47;;;;;;;26.48;6.32;;;4.40;99.90;;;;;;5075870;28;20025;-75
2021/12/10 01:13:19;;;;;;;28.55;6.32;;;4.40;99.90;;;;;;5075914;28;20029;-75
2021/12/10 01:16:14;;;;;;;18.67;6.65;;;4.50;99.90;;;;;;5075678;28;20025;-74
2021/12/10 01:27:25;;;;;;;18.92;5.53;;;4.50;99.90;;;;;;5075310;28;20036;-74
2021/12/10 01:29:56;;;;;;;13.35;4.70;;;4.60;99.90;;;;;;5075566;28;20043;-74
2021/12/10 01:32:26;;;;;;;16.08;4.93;;;4.60;99.90;;;;;;5076011;28;20488;-74
2021/12/10 01:34:52;;;;;;;12.63;4.45;;;4.60;99.90;;;;;;5057375;28;20040;-74
2021/12/10 01:37:18;;;;;;;12.63;4.43;;;4.60;99.90;;;;;;5075536;28;20370;-74
2021/12/10 01:39:45;;;;;;;21.65;5.50;;;4.50;99.90;;;;;;5075464;28;20039;-73
2021/12/10 01:42:19;;;;;;;26.88;6.10;;;4.60;99.90;;;;;;5075303;28;20040;-74
2021/12/10 01:44:51;;;;;;;21.08;6.05;;;4.60;99.90;;;;;;5075279;28;20103;-74
2021/12/10 01:47:20;;;;;;;18.60;6.32;;;4.60;99.90;;;;;;5075282;28;20078;-74
2021/12/10 01:49:46;;;;;;;23.25;5.97;;;4.60;99.90;;;;;;5074959;28;20021;-74
2021/12/10 01:52:15;;;;;;;17.73;5.10;;;4.60;99.90;;;;;;5057217;28;20484;-74
2021/12/10 01:54:46;;;;;;;22.38;5.47;;;4.60;99.90;;;;;;5075212;28;20103;-74
2021/12/10 01:57:14;;;;;;;17.95;5.35;;;4.60;99.90;;;;;;5075112;28;20056;-74
2021/12/10 01:59:42;;;;;;;19.00;5.25;;;4.50;99.90;;;;;;5075203;28;20452;-74
2021/12/10 02:02:35;;;;;;;23.33;5.43;;;4.50;99.90;;;;;;5074873;28;20032;-75
2021/12/10 02:05:03;;;;;;;19.55;5.07;;;4.50;99.90;;;;;;5074684;28;20044;-75
2021/12/10 02:07:28;;;;;;;26.70;5.05;;;4.50;99.90;;;;;;5074992;28;20415;-75
2021/12/10 02:09:55;;;;;;;19.85;4.95;;;4.50;99.90;;;;;;5056516;28;20040;-75
2021/12/10 02:12:21;;;;;;;16.90;4.55;;;4.50;99.90;;;;;;5054798;28;20029;-75
2021/12/10 02:14:57;;;;;;;10.68;4.00;;;4.50;99.90;;;;;;5054737;28;20016;-75
2021/12/10 02:17:24;;;;;;;17.35;4.35;;;4.60;99.90;;;;;;5054633;28;20164;-75
2021/12/10 02:19:50;;;;;;;8.00;3.55;;;4.60;99.90;;;;;;5054243;28;20071;-76
2021/12/10 02:22:16;;;;;;;14.65;4.03;;;4.70;99.90;;;;;;5054782;28;20425;-75
2021/12/10 02:24:41;;;;;;;16.88;3.75;;;4.70;99.90;;;;;;5054596;28;20086;-75
2021/12/10 02:27:08;;;;;;;12.32;4.32;;;4.70;99.90;;;;;;5054305;28;20032;-76
2021/12/10 02:29:38;;;;;;;12.85;3.97;;;4.70;99.90;;;;;;5036684;28;20029;-75
2021/12/10 02:32:07;;;;;;;14.32;4.88;;;4.70;99.90;;;;;;5036341;28;20040;-75
2021/12/10 02:34:33;;;;;;;12.77;4.07;;;4.70;99.90;;;;;;5054215;28;20055;-75
2021/12/10 02:36:59;;;;;;;15.65;3.92;;;4.70;99.90;;;;;;5036120;28;20057;-75
2021/12/10 02:39:27;;;;;;;19.83;5.28;;;4.80;99.90;;;;;;5054487;28;20025;-75
2021/12/10 02:41:54;;;;;;;25.25;4.78;;;4.70;99.90;;;;;;5054093;28;20029;-76
2021/12/10 02:44:27;;;;;;;15.82;4.38;;;4.70;99.90;;;;;;5054407;28;20045;-75
2021/12/10 02:46:53;;;;;;;14.90;3.60;;;4.80;99.90;;;;;;5053942;28;20114;-75
2021/12/10 02:49:20;;;;;;;14.95;3.42;;;4.80;99.90;;;;;;5061981;28;20485;-75
2021/12/10 02:51:46;;;;;;;9.95;3.50;;;4.80;99.90;;;;;;5056214;28;20031;-75
2021/12/10 02:54:16;;;;;;;14.18;3.35;;;4.80;99.90;;;;;;5073901;28;20111;-74
2021/12/10 02:56:42;;;;;;;13.73;3.33;;;4.80;99.90;;;;;;5073827;28;20381;-75
2021/12/10 02:59:08;;;;;;;15.60;3.83;;;4.80;99.90;;;;;;5055983;28;20078;-75
2021/12/10 03:01:36;;;;;;;14.93;3.33;;;4.70;99.90;;;;;;5055844;28;20469;-75
2021/12/10 03:04:03;;;;;;;12.20;3.25;;;4.80;99.90;;;;;;5073548;28;20496;-75
2021/12/10 03:06:30;;;;;;;13.20;3.28;;;4.80;99.90;;;;;;5073944;28;20053;-75
2021/12/10 03:08:57;;;;;;;11.05;2.95;;;4.80;99.90;;;;;;5073432;28;20047;-76
2021/12/10 03:11:28;;;;;;;17.90;3.65;;;4.80;99.90;;;;;;5073750;28;20023;-76
2021/12/10 03:13:54;;;;;;;14.63;3.83;;;4.80;99.90;;;;;;5055576;28;20036;-75
2021/12/10 03:16:20;;;;;;;13.35;3.35;;;4.80;99.90;;;;;;5073300;28;20082;-75
2021/12/10 03:18:47;;;;;;;15.43;3.75;;;4.80;99.90;;;;;;5073315;28;20065;-76
2021/12/10 03:21:13;;;;;;;18.85;4.20;;;4.80;99.90;;;;;;5073596;28;20032;-76
2021/12/10 03:23:42;;;;;;;9.85;3.40;;;4.80;99.90;;;;;;5073313;28;20036;-76
2021/12/10 03:26:14;;;;;;;27.25;3.25;;;4.80;99.90;;;;;;5073229;28;20024;-76
2021/12/10 03:28:42;;;;;;;15.27;3.75;;;4.80;99.90;;;;;;5072675;28;20068;-75
2021/12/10 03:31:09;;;;;;;11.32;3.45;;;4.80;99.90;;;;;;5072974;28;20020;-76
2021/12/10 03:33:36;;;;;;;14.98;3.28;;;4.90;99.90;;;;;;5073272;28;20037;-76
2021/12/10 03:36:03;;;;;;;18.90;4.35;;;4.80;99.90;;;;;;5073289;28;20058;-75
2021/12/10 03:38:30;;;;;;;15.30;3.08;;;4.90;99.90;;;;;;5073318;28;20028;-75
2021/12/10 03:40:59;;;;;;;15.88;3.08;;;4.90;99.90;;;;;;5073092;28;20396;-75
2021/12/10 03:43:27;;;;;;;9.57;2.90;;;4.90;99.90;;;;;;5073019;28;20036;-75
2021/12/10 03:45:56;;;;;;;9.63;2.22;;;4.80;99.90;;;;;;5054721;28;20048;-75
2021/12/10 03:48:27;;;;;;;8.88;2.05;;;4.90;99.90;;;;;;5073153;28;20033;-76
2021/12/10 03:50:59;;;;;;;8.30;1.80;;;4.80;99.90;;;;;;5055207;28;20024;-75
2021/12/10 03:53:25;;;;;;;5.65;1.98;;;4.90;99.90;;;;;;5055075;28;20728;-75
2021/12/10 03:55:56;;;;;;;8.85;1.38;;;4.80;99.90;;;;;;5054928;28;20153;-74
2021/12/10 03:58:21;;;;;;;5.40;1.40;;;4.80;99.90;;;;;;5054846;28;20040;-75
2021/12/10 04:00:50;;;;;;;5.40;1.40;;;4.80;99.90;;;;;;5072661;28;20020;-75
2021/12/10 04:03:19;;;;;;;5.82;1.13;;;4.80;99.90;;;;;;5054795;28;20451;-75
2021/12/10 04:05:46;;;;;;;3.28;1.00;;;4.80;99.90;;;;;;5073006;28;20145;-75
2021/12/10 04:08:12;;;;;;;2.63;0.80;;;4.90;99.90;;;;;;5054793;28;20016;-75
2021/12/10 04:10:38;;;;;;;4.70;0.98;;;4.80;99.90;;;;;;5072685;28;20107;-75
2021/12/10 04:13:05;;;;;;;3.10;0.80;;;4.80;99.90;;;;;;5072913;28;20036;-75
2021/12/10 04:15:31;;;;;;;3.67;0.70;;;4.80;99.90;;;;;;5072543;28;20550;-75
2021/12/10 04:17:57;;;;;;;3.75;0.80;;;4.80;99.90;;;;;;5072691;28;20028;-75
2021/12/10 04:20:27;;;;;;;5.20;1.05;;;4.80;99.90;;;;;;5072668;28;20040;-75
2021/12/10 04:22:53;;;;;;;2.20;0.63;;;4.80;99.90;;;;;;5072497;28;20043;-75
2021/12/10 04:25:24;;;;;;;5.78;1.02;;;4.80;99.90;;;;;;5072381;28;20028;-75
2021/12/10 04:27:52;;;;;;;2.85;0.80;;;4.80;99.90;;;;;;5072676;28;20036;-75
2021/12/10 04:30:18;;;;;;;2.67;0.85;;;4.70;99.90;;;;;;5072290;28;20591;-75
2021/12/10 04:32:45;;;;;;;3.53;0.65;;;4.70;99.90;;;;;;5072719;28;20031;-75
2021/12/10 04:35:12;;;;;;;4.75;1.00;;;4.70;99.90;;;;;;5072286;28;20067;-75
2021/12/10 04:37:38;;;;;;;3.55;0.90;;;4.70;99.90;;;;;;5072651;28;20032;-75
2021/12/10 04:40:08;;;;;;;1.80;0.73;;;4.70;99.90;;;;;;5055993;28;20036;-75
2021/12/10 04:42:34;;;;;;;2.67;0.70;;;4.60;99.90;;;;;;5076613;28;20040;-76
2021/12/10 04:45:00;;;;;;;12.75;0.98;;;4.60;99.90;;;;;;5076130;28;20486;-75
2021/12/10 04:47:28;;;;;;;4.80;0.93;;;4.60;99.90;;;;;;5076551;28;20403;-75
2021/12/10 04:49:54;;;;;;;3.22;0.85;;;4.60;99.90;;;;;;5058380;28;20841;-74
2021/12/10 04:52:21;;;;;;;2.13;0.90;;;4.50;99.90;;;;;;5076451;28;20063;-74
2021/12/10 04:54:47;;;;;;;4.93;0.70;;;4.60;99.90;;;;;;5076357;28;20055;-75
2021/12/10 04:57:15;;;;;;;10.80;1.10;;;4.50;99.90;;;;;;5076187;28;20026;-75
2021/12/10 04:59:43;;;;;;;4.25;0.90;;;4.40;99.90;;;;;;5076083;28;20384;-75
2021/12/10 05:02:11;;;;;;;4.22;1.05;;;4.40;99.90;;;;;;5076397;28;20401;-74
2021/12/10 05:04:39;;;;;;;4.47;0.95;;;4.50;99.90;;;;;;5076009;28;20072;-76
2021/12/10 05:07:06;;;;;;;2.47;0.90;;;4.50;99.90;;;;;;5057869;28;20020;-75
2021/12/10 05:09:32;;;;;;;4.85;0.90;;;4.40;99.90;;;;;;5057970;28;20116;-75
2021/12/10 05:12:01;;;;;;;1.90;0.80;;;4.50;99.90;;;;;;5058044;28;20506;-75
2021/12/10 05:14:29;;;;;;;4.07;1.10;;;4.40;99.90;;;;;;5076050;28;20070;-75
2021/12/10 05:16:58;;;;;;;2.40;0.60;;;4.40;99.90;;;;;;5057828;28;20048;-76
2021/12/10 05:19:26;;;;;;;2.92;0.93;;;4.40;99.90;;;;;;5075802;28;20103;-75
2021/12/10 05:21:54;;;;;;;1.00;0.57;;;4.30;99.90;;;;;;5075643;28;20067;-75
2021/12/10 05:24:20;;;;;;;1.27;0.90;;;4.30;99.90;;;;;;5075695;28;20036;-75
2021/12/10 05:26:46;;;;;;;4.68;0.90;;;4.30;99.90;;;;;;5075323;28;20065;-76
2021/12/10 05:29:13;;;;;;;2.92;1.00;;;4.40;99.90;;;;;;5075984;28;20035;-75
2021/12/10 05:31:43;;;;;;;3.50;1.40;;;4.30;99.90;;;;;;5075482;28;20040;-76
2021/12/10 05:34:10;;;;;;;4.60;1.58;;;4.20;99.90;;;;;;5075541;28;20024;-76
2021/12/10 05:36:36;;;;;;;5.63;2.10;;;4.30;99.90;;;;;;5075480;28;20457;-74
2021/12/10 05:39:03;;;;;;;4.40;1.50;;;4.30;99.90;;;;;;5075499;28;20138;-76
2021/12/10 05:41:29;;;;;;;7.40;1.60;;;4.30;99.90;;;;;;5075226;28;20033;-75
2021/12/10 05:43:55;;;;;;;5.07;1.58;;;4.30;99.90;;;;;;5075495;28;20097;-75
2021/12/10 05:46:21;;;;;;;8.38;1.80;;;4.30;99.90;;;;;;5075122;28;20082;-75
2021/12/10 05:48:47;;;;;;;20.95;5.32;;;4.30;99.90;;;;;;5075422;28;20070;-74
2021/12/10 05:51:13;;;;;;;4.57;2.00;;;4.30;99.90;;;;;;5074783;28;20017;-75
2021/12/10 05:53:40;;;;;;;10.18;3.40;;;4.30;99.90;;;;;;5057532;28;20028;-75
2021/12/10 05:56:07;;;;;;;5.68;1.80;;;4.40;99.90;;;;;;5075721;28;20039;-75
2021/12/10 05:58:34;;;;;;;5.22;1.40;;;4.40;99.90;;;;;;5077384;28;20025;-75
2021/12/10 06:01:05;;;;;;;6.60;1.88;;;4.40;99.90;;;;;;5080662;28;20052;-75
2021/12/10 06:03:33;;;;;;;7.15;1.90;;;4.30;99.90;;;;;;5078138;28;20445;-76
2021/12/10 06:05:59;;;;;;;14.13;3.30;;;4.30;99.90;;;;;;5076951;28;20024;-75
2021/12/10 06:08:26;;;;;;;10.13;3.13;;;4.30;99.90;;;;;;5078212;28;20038;-75
2021/12/10 06:10:54;;;;;;;6.50;2.35;;;4.30;99.90;;;;;;5078223;28;20017;-75
2021/12/10 06:13:20;;;;;;;6.40;2.30;;;4.30;99.90;;;;;;5077223;28;20031;-75
2021/12/10 06:15:46;;;;;;;6.90;2.58;;;4.30;99.90;;;;;;5074883;28;20115;-75
2021/12/10 06:18:12;;;;;;;11.32;2.45;;;4.30;99.90;;;;;;5074724;28;20078;-75
2021/12/10 06:20:42;;;;;;;10.40;3.15;;;4.30;99.90;;;;;;5074704;28;20176;-75
2021/12/10 06:23:08;;;;;;;6.15;2.38;;;4.30;99.90;;;;;;5074559;28;20031;-75
2021/12/10 06:25:35;;;;;;;13.45;3.03;;;4.40;99.90;;;;;;5074307;28;20036;-75
2021/12/10 06:28:02;;;;;;;6.75;3.13;;;4.40;99.90;;;;;;5074356;28;20037;-75
2021/12/10 06:30:31;;;;;;;9.57;2.72;;;4.40;99.90;;;;;;5074394;28;20028;-75
2021/12/10 06:32:59;;;;;;;6.57;2.30;;;4.40;99.90;;;;;;5074601;28;20040;-75
2021/12/10 06:35:27;;;;;;;8.25;2.80;;;4.40;99.90;;;;;;5074596;28;20392;-75
2021/12/10 06:37:53;;;;;;;9.25;3.00;;;4.30;99.90;;;;;;5074576;28;20032;-75
2021/12/10 06:40:22;;;;;;;12.05;2.33;;;4.20;99.90;;;;;;5056200;28;20035;-75
2021/12/10 06:42:49;;;;;;;7.88;3.15;;;4.20;99.90;;;;;;5074048;28;20469;-75
2021/12/10 06:45:17;;;;;;;7.43;1.92;;;4.30;99.90;;;;;;5074158;28;20465;-75
2021/12/10 06:47:48;;;;;;;4.55;1.70;;;4.30;99.90;;;;;;5074038;28;20036;-75
2021/12/10 06:50:19;;;;;;;4.40;1.80;;;4.20;99.90;;;;;;5074142;28;20082;-75
2021/12/10 06:52:45;;;;;;;5.75;2.80;;;4.20;99.90;;;;;;5073947;28;20052;-75
2021/12/10 06:55:13;;;;;;;13.77;3.22;;;4.30;99.90;;;;;;5073862;28;20107;-75
2021/12/10 06:57:38;;;;;;;7.43;2.80;;;4.20;99.90;;;;;;5073855;28;20098;-74
2021/12/10 07:00:10;;;;;;;10.18;2.97;;;4.20;99.90;;;;;;5073990;28;20025;-74
2021/12/10 07:02:36;;;;;;;9.43;3.25;;;4.10;99.90;;;;;;5055208;28;20064;-75
2021/12/10 07:05:03;;;;;;;9.48;3.20;;;4.10;99.90;;;;;;5074382;28;20388;-75
2021/12/10 07:07:29;;;;;;;6.05;2.58;;;4.10;99.90;;;;;;5075457;28;20029;-75
2021/12/10 07:09:55;;;;;;;6.82;1.88;;;4.10;99.90;;;;;;5055868;28;20197;-75
2021/12/10 07:12:21;;;;;;;3.40;1.75;;;4.10;99.90;;;;;;5053829;28;20508;-75
2021/12/10 07:14:47;;;;;;;5.57;1.25;;;4.10;99.90;;;;;;5053774;28;20103;-75
2021/12/10 07:17:13;;;;;;;4.25;1.88;;;4.20;99.90;;;;;;5053655;28;20468;-75
2021/12/10 07:19:40;;;;;;;3.38;1.60;;;4.20;99.90;;;;;;5054186;28;20037;-74
2021/12/10 07:22:06;;;;;;;5.55;1.42;;;4.10;99.90;;;;;;5054072;28;20033;-75
2021/12/10 07:24:32;;;;;;;6.95;2.15;;;4.00;99.90;;;;;;5036811;28;20029;-74
2021/12/10 07:26:58;;;;;;;3.10;1.13;;;4.00;99.90;;;;;;5037273;28;20569;-74
2021/12/10 07:29:24;;;;;;;4.00;1.70;;;4.10;99.90;;;;;;5039501;28;20055;-75
2021/12/10 07:31:49;;;;;;;5.78;1.60;;;4.10;99.90;;;;;;5071319;28;20476;-75
2021/12/10 07:34:16;;;;;;;3.05;1.48;;;4.10;99.90;;;;;;5058702;28;20032;-74
2021/12/10 07:36:42;;;;;;;4.53;2.15;;;4.20;99.90;;;;;;5053766;28;20104;-75
2021/12/10 07:39:10;;;;;;;9.40;1.90;;;4.20;99.90;;;;;;5064774;28;20115;-74
2021/12/10 07:41:37;;;;;;;3.17;1.08;;;4.30;99.90;;;;;;5067142;28;20087;-75
2021/12/10 07:44:04;;;;;;;2.63;1.40;;;4.40;99.90;;;;;;5062916;28;20067;-76
2021/12/10 07:46:32;;;;;;;4.05;1.30;;;4.20;99.90;;;;;;5071996;28;20491;-74
2021/12/10 07:48:58;;;;;;;4.07;1.52;;;4.20;99.90;;;;;;5064778;28;20036;-74
2021/12/10 07:51:27;;;;;;;4.35;1.30;;;4.20;99.90;;;;;;5066525;28;20035;-75
2021/12/10 07:53:57;;;;;;;3.13;1.63;;;4.20;99.90;;;;;;5071880;28;20111;-76
2021/12/10 07:56:25;;;;;;;6.93;1.50;;;4.20;99.90;;;;;;5072577;28;20022;-76
2021/12/10 07:58:51;;;;;;;5.88;1.25;;;4.10;99.90;;;;;;5070391;28;20051;-74
2021/12/10 08:01:22;;;;;;;5.15;1.50;;;4.10;99.90;;;;;;5068098;28;20487;-74
2021/12/10 08:03:48;;;;;;;4.03;1.35;;;4.00;99.90;;;;;;5068704;28;20412;-74
2021/12/10 08:06:15;;;;;;;1.75;1.15;;;4.10;99.90;;;;;;5051226;28;20104;-74
2021/12/10 08:08:41;;;;;;;4.47;1.65;;;4.00;99.90;;;;;;5071167;28;20082;-74
2021/12/10 08:11:07;;;;;;;3.50;1.50;;;4.00;99.90;;;;;;5069183;28;20032;-73
2021/12/10 08:13:33;;;;;;;2.75;1.40;;;4.00;99.90;;;;;;5070209;28;20070;-74
2021/12/10 08:15:59;;;;;;;4.63;1.70;;;4.10;99.90;;;;;;5064450;28;20029;-74
2021/12/10 08:18:25;;;;;;;5.78;2.15;;;4.00;99.90;;;;;;5070238;28;20032;-74
2021/12/10 08:20:50;;;;;;;6.65;2.03;;;4.10;99.90;;;;;;5071051;28;20025;-74
2021/12/10 08:23:19;;;;;;;8.73;2.05;;;4.10;99.90;;;;;;5069372;28;20080;-74
2021/12/10 08:25:45;;;;;;;3.35;1.90;;;4.00;99.90;;;;;;5065034;28;20030;-74
2021/12/10 08:28:11;;;;;;;5.57;2.00;;;4.00;99.90;;;;;;5070458;28;20040;-74
2021/12/10 08:30:38;;;;;;;4.97;1.70;;;4.10;99.90;;;;;;5067575;28;20024;-74
2021/12/10 08:33:11;;;;;;;3.17;2.00;;;4.00;99.90;;;;;;5070901;28;20035;-75
2021/12/10 08:35:38;;;;;;;5.07;1.98;;;4.00;99.90;;;;;;5051401;28;20021;-74
2021/12/10 08:38:04;;;;;;;4.35;1.85;;;3.90;99.90;;;;;;5071840;28;20033;-74
2021/12/10 08:40:34;;;;;;;5.57;1.77;;;4.00;99.90;;;;;;5065666;28;20024;-74
2021/12/10 08:43:01;;;;;;;4.88;1.83;;;3.90;99.90;;;;;;5069385;28;20043;-73
2021/12/10 08:45:28;;;;;;;2.15;1.40;;;3.90;99.90;;;;;;5071890;28;20082;-74
2021/12/10 08:47:54;;;;;;;5.25;1.90;;;4.00;99.90;;;;;;5071554;28;20481;-75
2021/12/10 08:50:23;;;;;;;2.80;1.70;;;4.00;99.90;;;;;;5057065;28;20048;-74
2021/12/10 08:53:02;;;;;;;7.88;1.60;;;4.00;99.90;;;;;;5070357;28;20484;-74
2021/12/10 08:55:30;;;;;;;3.88;1.92;;;4.10;99.90;;;;;;5053837;28;20091;-74
2021/12/10 08:57:56;;;;;;;2.45;1.63;;;4.10;99.90;;;;;;5074893;28;20107;-74
2021/12/10 09:00:23;;;;;;;2.88;1.80;;;4.10;99.90;;;;;;5068149;28;20107;-74
2021/12/10 09:02:51;;;;;;;2.13;1.65;;;4.10;99.90;;;;;;5067771;28;20037;-74
2021/12/10 09:05:18;;;;;;;9.63;1.90;;;4.10;99.90;;;;;;5061206;28;20525;-73
2021/12/10 09:07:45;;;;;;;3.28;1.40;;;4.10;99.90;;;;;;5063261;28;20036;-73
2021/12/10 09:10:14;;;;;;;2.15;1.48;;;4.20;99.90;;;;;;5069726;28;20047;-74
2021/12/10 09:12:41;;;;;;;2.60;1.83;;;4.00;99.90;;;;;;5070095;28;20453;-74
2021/12/10 09:15:10;;;;;;;3.28;1.65;;;3.90;99.90;;;;;;5061891;28;20440;-75
2021/12/10 09:17:39;;;;;;;2.28;1.45;;;4.00;99.90;;;;;;5067650;28;20089;-74
2021/12/10 09:20:11;;;;;;;2.40;1.80;;;4.10;99.90;;;;;;5067497;28;20039;-74
2021/12/10 09:22:37;;;;;;;2.38;1.63;;;4.10;99.90;;;;;;5068225;28;20037;-78
2021/12/10 09:25:06;;;;;;;3.40;1.90;;;4.30;99.90;;;;;;5053581;28;20370;-77
2021/12/10 09:27:32;;;;;;;3.72;1.52;;;4.30;99.90;;;;;;5070152;28;20368;-75
2021/12/10 09:29:57;;;;;;;4.43;1.60;;;4.10;99.90;;;;;;5063877;28;20029;-82
2021/12/10 09:32:26;;;;;;;3.90;1.40;;;4.10;99.90;;;;;;5056164;28;20036;-85
2021/12/10 09:34:55;;;;;;;3.65;1.95;;;4.10;99.90;;;;;;5056439;28;20024;-85
2021/12/10 09:37:23;;;;;;;4.20;1.58;;;4.00;99.90;;;;;;5065930;28;20169;-79
2021/12/10 09:39:51;;;;;;;5.22;1.77;;;4.00;99.90;;;;;;5073255;28;20093;-79
2021/12/10 09:42:20;;;;;;;2.25;1.40;;;4.00;99.90;;;;;;5074389;28;20017;-80
2021/12/10 09:44:51;;;;;;;2.70;1.98;;;4.00;99.90;;;;;;5074154;28;20043;-77
2021/12/10 09:47:17;;;;;;;2.47;1.77;;;4.00;99.90;;;;;;5052151;28;20033;-79
2021/12/10 09:49:51;;;;;;;3.58;1.70;;;4.10;99.90;;;;;;5074062;28;20376;-79
2021/12/10 09:52:19;;;;;;;8.25;1.70;;;4.20;99.90;;;;;;5074886;28;20495;-80
2021/12/10 09:54:47;;;;;;;5.65;2.33;;;4.10;99.90;;;;;;5074973;28;20020;-80
2021/12/10 09:57:34;;;;;;;3.50;2.22;;;4.20;99.90;;;;;;5072323;28;20021;-81
2021/12/10 10:00:10;;;;;;;2.97;2.00;;;4.20;99.90;;;;;;5072900;28;20115;-81
2021/12/10 10:02:41;;;;;;;5.90;2.03;;;4.20;99.90;;;;;;5065604;28;20041;-81
2021/12/10 10:05:08;;;;;;;7.13;2.78;;;4.20;99.90;;;;;;5063361;28;20109;-79
2021/12/10 10:07:35;;;;;;;8.80;2.35;;;4.20;99.90;;;;;;5072367;28;20032;-79
2021/12/10 10:10:12;;;;;;;10.55;2.28;;;4.20;99.90;;;;;;5055541;28;20031;-77
2021/12/10 10:12:41;;;;;;;7.32;2.15;;;4.20;99.90;;;;;;5054357;28;20028;-75
2021/12/10 10:15:15;;;;;;;4.05;1.83;;;4.30;99.90;;;;;;5061509;28;20035;-76
2021/12/10 10:17:41;;;;;;;2.22;1.48;;;4.40;99.90;;;;;;5071412;28;20447;-78
2021/12/10 10:20:10;;;;;;;3.72;2.15;;;4.50;99.90;;;;;;5073899;28;20041;-78
2021/12/10 10:22:36;;;;;;;4.00;2.10;;;4.50;99.90;;;;;;5055413;28;20048;-79
2021/12/10 10:25:07;;;;;;;3.03;2.13;;;4.30;99.90;;;;;;5063856;28;20029;-78
2021/12/10 10:27:34;;;;;;;4.60;2.08;;;4.30;99.90;;;;;;5053392;28;20059;-78
2021/12/10 10:30:05;;;;;;;1.75;1.55;;;4.30;99.90;;;;;;5047509;28;20112;-78
2021/12/10 10:32:33;;;;;;;4.32;1.85;;;4.30;99.90;;;;;;5073454;28;20032;-78
2021/12/10 10:35:06;;;;;;;3.65;2.05;;;4.40;99.90;;;;;;5058213;28;20031;-77
2021/12/10 10:37:33;;;;;;;3.15;2.28;;;4.40;99.90;;;;;;5034914;28;20116;-81
2021/12/10 10:40:03;;;;;;;3.03;2.10;;;4.60;99.90;;;;;;5063902;28;20077;-81
2021/12/10 10:42:30;;;;;;;2.25;2.05;;;4.50;99.90;;;;;;5073370;28;20533;-80
2021/12/10 10:45:06;;;;;;;8.68;2.17;;;4.60;99.90;;;;;;5073902;28;20028;-81
2021/12/10 10:47:32;;;;;;;3.50;1.60;;;4.70;99.90;;;;;;5071688;28;20039;-79
2021/12/10 10:50:11;;;;;;;1.75;1.65;;;4.70;99.90;;;;;;5069982;28;20045;-81
2021/12/10 10:52:39;;;;;;;3.33;1.52;;;4.60;99.90;;;;;;5071102;28;20101;-80
2021/12/10 10:55:11;;;;;;;1.92;1.55;;;4.50;99.90;;;;;;5072119;28;20166;-80
2021/12/10 10:57:40;;;;;;;2.17;1.48;;;4.30;99.90;;;;;;5073263;28;20032;-81
2021/12/10 11:00:29;;;;;;;1.95;1.55;;;4.30;99.90;;;;;;5055458;28;20032;-80
2021/12/10 11:03:01;;;;;;;3.15;1.60;;;4.30;99.90;;;;;;5071952;28;20393;-80
2021/12/10 11:05:27;;;;;;;;;;;4.10;99.90;;;;;;5073324;28;20032;-81
2021/12/10 11:07:58;;;;;;;4.32;2.10;;;4.00;99.90;;;;;;5070310;28;19908;-81
2021/12/10 11:10:51;;;;;;;9.02;2.80;;;4.10;99.90;;;;;;5048153;28;20029;-81
2021/12/10 11:13:23;;;;;;;9.20;3.63;;;4.10;99.90;;;;;;5051500;28;20036;-80
2021/12/10 11:16:11;;;;;;;7.30;3.67;;;4.00;99.90;;;;;;5059618;28;20037;-78
2021/12/10 11:18:56;;;;;;;9.18;4.50;;;4.10;99.90;;;;;;5072360;28;20381;-79
2021/12/10 11:21:39;;;;;;;8.63;3.40;;;4.30;99.90;;;;;;5072904;28;20071;-78
2021/12/10 11:24:15;;;;;;;7.40;3.78;;;4.30;99.90;;;;;;5053107;28;20025;-75
2021/12/10 11:26:48;;;;;;;7.30;4.20;;;4.50;99.90;;;;;;5065334;28;20040;-76
2021/12/10 11:29:38;;;;;;;9.20;4.13;;;4.40;99.90;;;;;;5064663;28;20107;-76
2021/12/10 11:32:13;;;;;;;8.70;3.92;;;4.30;99.90;;;;;;5071012;28;20078;-76
2021/12/10 11:34:45;;;;;;;9.00;3.90;;;4.40;99.90;;;;;;5071458;28;20532;-78
2021/12/10 11:37:13;;;;;;;8.48;4.97;;;4.40;99.90;;;;;;5071160;28;20051;-81
2021/12/10 11:39:52;;;;;;;5.22;3.55;;;4.30;99.90;;;;;;5071786;28;20024;-80
2021/12/10 11:42:42;;;;;;;4.47;3.40;;;4.40;99.90;;;;;;5068566;28;20173;-79
2021/12/10 11:45:33;;;;;;;8.38;3.60;;;4.40;99.90;;;;;;5071969;28;20120;-79
2021/12/10 11:48:10;;;;;;;4.07;2.88;;;4.40;99.90;;;;;;5068815;28;20024;-79
2021/12/10 11:50:41;;;;;;;4.28;3.25;;;4.10;99.90;;;;;;5054731;28;20106;-79
2021/12/10 11:53:10;;;;;;;2.67;2.42;;;4.10;99.90;;;;;;5072876;28;20040;-78
2021/12/10 11:55:37;;;;;;;4.07;2.70;;;3.90;99.90;;;;;;5072506;28;20047;-79
2021/12/10 11:58:13;;;;;;;4.80;2.38;;;4.10;99.90;;;;;;5072613;28;20135;-78
2021/12/10 12:00:40;;;;;;;3.42;2.97;;;4.20;99.90;;;;;;5072523;28;20036;-79
2021/12/10 12:03:08;;;;;;;4.43;3.45;;;4.20;99.90;;;;;;5071524;28;20487;-79
2021/12/10 12:05:41;;;;;;;5.78;4.07;;;4.40;99.90;;;;;;5072623;28;20122;-79
2021/12/10 12:08:18;;;;;;;5.65;4.10;;;4.60;99.90;;;;;;5072654;28;20035;-80
2021/12/10 12:10:50;;;;;;;5.15;4.47;;;4.60;99.90;;;;;;5072528;28;20115;-76
2021/12/10 12:13:35;;;;;;;6.32;5.32;;;4.70;99.90;;;;;;5072524;28;20056;-72
2021/12/10 12:16:10;;;;;;;7.03;6.18;;;4.60;99.90;;;;;;5072406;28;20056;-73
2021/12/10 12:18:43;;;;;;;8.57;6.10;;;4.70;99.90;;;;;;5072493;28;20548;-76
2021/12/10 12:27:05;;;;;;;6.95;5.88;;;3.90;99.90;;;;;;5072441;28;20488;-74
2021/12/10 12:29:55;;;;;;;9.65;6.93;;;3.80;99.90;;;;;;5072616;28;20028;-72
2021/12/10 12:32:37;;;;;;;9.38;8.18;;;3.80;99.90;;;;;;5073116;28;20047;-75
2021/12/10 12:35:23;;;;;;;11.38;10.10;;;3.70;99.90;;;;;;5054182;28;20036;-76
2021/12/10 12:37:49;;;;;;;12.63;9.73;;;3.90;99.90;;;;;;5072624;28;20039;-74
2021/12/10 12:40:16;;;;;;;10.93;9.50;;;3.90;99.90;;;;;;5072407;28;20119;-73
2021/12/10 12:42:48;;;;;;;6.47;5.70;;;3.90;99.90;;;;;;5072421;28;20037;-72
2021/12/10 12:45:16;;;;;;;7.28;6.07;;;3.80;99.90;;;;;;5072216;28;20154;-73
2021/12/10 12:47:45;;;;;;;6.60;5.28;;;3.80;99.90;;;;;;5072469;28;20040;-71
2021/12/10 12:50:20;;;;;;;7.72;5.55;;;3.80;99.90;;;;;;5072398;28;20032;-72
2021/12/10 12:52:51;;;;;;;6.10;5.25;;;3.60;99.90;;;;;;5054439;28;20127;-73
2021/12/10 12:55:47;;;;;;;6.57;5.40;;;3.60;99.90;;;;;;5072342;28;20473;-71
2021/12/10 12:58:36;;;;;;;7.85;5.35;;;3.70;99.90;;;;;;5054234;28;20059;-71
2021/12/10 13:01:20;;;;;;;9.10;6.22;;;3.80;99.90;;;;;;5073426;28;20035;-74
2021/12/10 13:03:59;;;;;;;10.90;6.88;;;3.80;99.90;;;;;;5076125;28;20056;-74
2021/12/10 13:07:12;;;;;;;10.20;6.50;;;3.90;99.90;;;;;;5076024;28;20025;-74
2021/12/10 13:09:46;;;;;;;12.20;7.07;;;3.90;99.90;;;;;;4994328;28;20081;-76
2021/12/10 13:13:11;;;;;;;9.70;6.90;;;4.00;99.90;;;;;;4994260;28;20109;-77
2021/12/10 13:15:25;;;;;;;6.80;5.78;;;3.90;99.90;;;;;;5036392;28;20037;-76
2021/12/10 13:17:56;;;;;;;6.47;5.20;;;3.90;99.90;;;;;;5055871;28;20040;-76
2021/12/10 13:20:30;;;;;;;5.68;4.47;;;3.80;99.90;;;;;;5055789;28;20029;-74
2021/12/10 13:23:00;;;;;;;4.22;3.70;;;3.80;99.90;;;;;;5055790;28;20452;-73